createdAt,value
2022-09-24T00:03:21.690Z,10.38
2022-09-24T00:10:23.475Z,10.88
2022-09-24T00:17:25.050Z,10.65
2022-09-24T00:24:45.203Z,10.05
2022-09-24T00:31:47.153Z,11.48
2022-09-24T00:38:52.761Z,13.80
2022-09-24T00:46:09.317Z,10.82
2022-09-24T00:53:14.544Z,8.95
2022-09-24T01:00:16.142Z,8.82
2022-09-24T01:07:17.723Z,9.50
2022-09-24T01:14:40.870Z,10.98
2022-09-24T01:21:49.136Z,9.85
2022-09-24T01:28:51.063Z,8.60
2022-09-24T01:35:55.234Z,10.82
2022-09-24T01:42:57.883Z,9.93
2022-09-24T01:49:59.512Z,11.18
2022-09-24T01:57:25.759Z,11.10
2022-09-24T02:04:27.666Z,9.13
2022-09-24T02:11:29.240Z,12.38
2022-09-24T02:18:33.634Z,9.18
2022-09-24T02:25:39.372Z,11.07
2022-09-24T02:32:41.182Z,13.43
2022-09-24T02:39:42.864Z,9.80
2022-09-24T02:46:45.295Z,10.63
2022-09-24T02:53:46.993Z,11.13
2022-09-24T03:00:48.574Z,9.25
2022-09-24T03:07:50.394Z,11.45
2022-09-24T03:14:51.980Z,9.43
2022-09-24T03:21:53.620Z,9.52
2022-09-24T03:28:55.186Z,11.30
2022-09-24T03:36:27.123Z,10.75
2022-09-24T03:43:28.724Z,12.75
2022-09-24T03:50:30.290Z,10.50
2022-09-24T03:57:31.840Z,11.38
2022-09-24T04:04:33.427Z,11.18
2022-09-24T04:11:35.217Z,11.27
2022-09-24T04:18:39.287Z,12.70
2022-09-24T04:25:41.132Z,10.40
2022-09-24T04:32:42.771Z,10.65
2022-09-24T04:39:44.376Z,10.10
2022-09-24T04:46:46.061Z,12.13
2022-09-24T04:53:50.472Z,9.85
2022-09-24T05:00:53.217Z,11.13
2022-09-24T05:07:56.884Z,10.95
2022-09-24T05:14:58.438Z,12.57
2022-09-24T05:21:59.993Z,10.68
2022-09-24T05:29:01.767Z,9.98
2022-09-24T05:36:04.499Z,12.10
2022-09-24T05:43:06.061Z,12.90
2022-09-24T05:50:07.802Z,11.00
2022-09-24T05:57:09.365Z,13.27
2022-09-24T06:04:14.243Z,13.38
2022-09-24T06:11:15.866Z,14.68
2022-09-24T06:18:17.490Z,11.70
2022-09-24T06:25:19.065Z,12.90
2022-09-24T06:32:20.664Z,10.48
2022-09-24T06:39:23.364Z,11.10
2022-09-24T06:46:26.733Z,11.52
2022-09-24T06:53:28.341Z,11.57
2022-09-24T07:00:29.955Z,12.82
2022-09-24T07:07:33.247Z,19.27
2022-09-24T07:14:35.013Z,11.93
2022-09-24T07:21:37.446Z,12.13
2022-09-24T07:28:39.034Z,12.25
2022-09-24T07:35:41.699Z,11.48
2022-09-24T07:42:47.363Z,12.18
2022-09-24T07:49:48.926Z,10.95
2022-09-24T07:56:50.474Z,11.52
2022-09-24T08:03:52.277Z,10.88
2022-09-24T08:10:54.030Z,11.75
2022-09-24T08:18:01.405Z,12.35
2022-09-24T08:25:04.236Z,12.07
2022-09-24T08:32:05.820Z,11.75
2022-09-24T08:39:08.562Z,11.20
2022-09-24T08:46:47.014Z,10.60
2022-09-24T08:54:24.034Z,13.18
2022-09-24T09:01:44.428Z,12.02
2022-09-24T09:09:06.951Z,12.43
2022-09-24T09:16:26.656Z,10.38
2022-09-24T09:23:38.116Z,13.07
2022-09-24T09:30:44.621Z,12.20
2022-09-24T09:37:55.152Z,11.40
2022-09-24T09:44:56.825Z,12.05
2022-09-24T09:51:58.398Z,11.90
2022-09-24T09:59:13.210Z,10.07
2022-09-24T10:06:26.153Z,9.82
2022-09-24T10:13:27.830Z,12.75
2022-09-24T10:20:33.621Z,10.63
2022-09-24T10:27:36.186Z,9.48
2022-09-24T10:34:37.755Z,11.68
2022-09-24T10:41:48.463Z,10.98
2022-09-24T10:48:56.183Z,13.07
2022-09-24T10:56:11.610Z,12.52
2022-09-24T11:03:21.039Z,9.25
2022-09-24T11:10:51.605Z,11.23
2022-09-24T11:18:14.724Z,8.40
2022-09-24T11:25:31.497Z,8.48
2022-09-24T11:33:08.112Z,10.13
2022-09-24T11:40:29.760Z,8.82
2022-09-24T11:47:38.737Z,8.98
2022-09-24T11:54:43.215Z,10.53
2022-09-24T12:01:49.026Z,9.80
2022-09-24T12:08:56.567Z,9.63
2022-09-24T12:16:03.450Z,8.80
2022-09-24T12:23:09.450Z,8.48
2022-09-24T12:30:55.429Z,10.27
2022-09-24T12:38:11.217Z,8.98
2022-09-24T12:45:21.253Z,11.23
2022-09-24T12:52:40.078Z,10.50
2022-09-24T13:00:05.664Z,12.05
2022-09-24T13:07:33.867Z,9.57
2022-09-24T13:14:35.507Z,8.80
2022-09-24T13:21:38.338Z,10.27
2022-09-24T13:28:51.222Z,10.52
2022-09-24T13:36:02.672Z,8.35
2022-09-24T13:43:16.292Z,9.38
2022-09-24T13:50:34.557Z,10.95
2022-09-24T13:57:45.769Z,9.45
2022-09-24T14:04:47.412Z,10.52
2022-09-24T14:11:53.453Z,9.45
2022-09-24T14:19:05.494Z,8.57
2022-09-24T14:26:07.536Z,9.68
2022-09-24T14:33:14.146Z,9.85
2022-09-24T14:40:17.475Z,10.05
2022-09-24T14:47:29.860Z,9.45
2022-09-24T14:54:35.742Z,12.32
2022-09-24T15:01:37.389Z,13.30
2022-09-24T15:08:38.962Z,13.48
2022-09-24T15:15:41.087Z,11.20
2022-09-24T15:22:42.646Z,9.65
2022-09-24T15:29:44.204Z,10.30
2022-09-24T15:36:47.119Z,11.80
2022-09-24T15:43:48.675Z,10.55
2022-09-24T15:50:51.614Z,12.70
2022-09-24T15:57:53.909Z,11.40
2022-09-24T16:04:56.646Z,12.43
2022-09-24T16:12:00.910Z,8.85
2022-09-24T16:19:02.619Z,11.20
2022-09-24T16:26:04.285Z,13.35
2022-09-24T16:33:05.932Z,9.93
2022-09-24T16:40:08.108Z,11.50
2022-09-24T16:47:09.748Z,12.48
2022-09-24T16:54:13.243Z,16.10
2022-09-24T17:01:16.529Z,15.45
2022-09-24T17:08:18.117Z,12.85
2022-09-24T17:15:20.498Z,16.13
2022-09-24T17:22:22.110Z,14.52
2022-09-24T17:29:30.451Z,11.40
2022-09-24T17:36:33.828Z,14.73
2022-09-24T17:43:35.597Z,14.73
2022-09-24T17:50:37.400Z,13.20
2022-09-24T17:57:38.948Z,14.88
2022-09-24T18:04:40.569Z,13.75
2022-09-24T18:11:44.283Z,17.23
2022-09-24T18:18:45.926Z,16.67
2022-09-24T18:25:48.087Z,14.65
2022-09-24T18:32:50.361Z,13.18
2022-09-24T18:39:51.926Z,14.55
2022-09-24T18:46:53.550Z,12.73
2022-09-24T18:53:56.692Z,12.90
2022-09-24T19:00:59.472Z,14.25
2022-09-24T19:08:01.201Z,13.30
2022-09-24T19:15:03.084Z,13.18
2022-09-24T19:22:04.962Z,15.52
2022-09-24T19:29:06.802Z,15.55
2022-09-24T19:36:08.713Z,15.65
2022-09-24T19:43:10.374Z,13.68
2022-09-24T19:50:17.165Z,13.57
2022-09-24T19:57:20.485Z,16.27
2022-09-24T20:04:22.352Z,14.70
2022-09-24T20:11:25.483Z,15.85
2022-09-24T20:18:27.200Z,14.45
2022-09-24T20:25:47.503Z,14.43
2022-09-24T20:32:50.306Z,14.85
2022-09-24T20:39:51.936Z,14.00
2022-09-24T20:46:53.558Z,13.77
2022-09-24T20:53:55.399Z,14.13
2022-09-24T21:00:56.930Z,16.33
2022-09-24T21:07:58.548Z,14.52
2022-09-24T21:15:00.277Z,14.68
2022-09-24T21:22:04.571Z,15.50
2022-09-24T21:29:11.831Z,12.75
2022-09-24T21:36:16.467Z,13.65
2022-09-24T21:43:18.129Z,14.00
2022-09-24T21:50:20.149Z,14.27
2022-09-24T21:57:21.695Z,14.63
2022-09-24T22:04:23.287Z,12.60
2022-09-24T22:11:27.269Z,13.90
2022-09-24T22:18:29.124Z,12.45
2022-09-24T22:25:31.307Z,13.05
2022-09-24T22:32:32.859Z,16.92
2022-09-24T22:39:35.009Z,15.00
2022-09-24T22:46:40.797Z,13.45
2022-09-24T22:53:42.406Z,18.05
2022-09-24T23:00:44.847Z,12.45
2022-09-24T23:07:46.404Z,13.07
2022-09-24T23:14:50.609Z,10.77
2022-09-24T23:21:52.182Z,11.23
2022-09-24T23:28:54.525Z,13.50
2022-09-24T23:35:56.451Z,14.93
2022-09-24T23:42:58.244Z,12.85
2022-09-24T23:49:59.812Z,15.35
2022-09-24T23:57:02.087Z,10.45
